Nearby METAR Reports

 

KPAE - Everett, Washington, USA
Distance from station: NW 15mi, 25km
Updated: 05/27/2020 4:53pm
Clear
Clear
 Wind from N
Wind: N 9 mph , 15 km/h
Temperature: 68°F , 20°C
Dew Point: 46°F , 8°C
Humidity: 46%
Barometer: 30.14 inHg , 1020.7 hPa
Clouds: Clear
Visibility: 10 miles , 16 km
2020/05/27 23:53 KPAE 272353Z 35008KT 10SM CLR 20/08 A3014 RMK AO2 SLP205 T02000078 10200 20161 58012
KBFI - Seattle/Boeing, Washington, USA
Distance from station: SW 20mi, 31km
Updated: 05/27/2020 4:53pm
Clear
Clear
 Wind from NW
Wind: NW 10 mph , 17 km/h
Temperature: 73°F , 23°C
Dew Point: 43°F , 6°C
Humidity: 33%
Barometer: 30.10 inHg , 1019.3 hPa
Clouds: Clear
Visibility: 10 miles , 16 km
2020/05/27 23:53 KBFI 272353Z 32009KT 10SM CLR 23/06 A3010 RMK AO2 SLP192 T02280061 10228 20183 58015
KSEA - Seattle/Metro, Washington, USA
Distance from station: SSW 25mi, 41km
Updated: 05/27/2020 4:53pm
Mostly cloudy
Mostly cloudy
 Wind from NNW
Wind: NNW 9 mph , 15 km/h
Temperature: 73°F , 23°C
Dew Point: 46°F , 8°C
Humidity: 38%
Barometer: 30.11 inHg , 1019.6 hPa
Clouds: Mostly cloudy
Visibility: 10 miles , 16 km
Cloud details: Mostly cloudy 25000 ft
2020/05/27 23:53 KSEA 272353Z 34008KT 10SM BKN250 23/08 A3011 RMK AO2 SLP203 T02330083 10233 20189 58014 $
 
KAWO - Arlington Muni, Washington, USA
Distance from station: NNW 28mi, 46km
Updated: 05/27/2020 4:56pm
Clear
Clear
 Wind from WNW
Wind: WNW 13 mph , 20 km/h
Temperature: 72°F , 22°C
Dew Point: 52°F , 11°C
Humidity: 50%
Barometer: 30.12 inHg , 1020 hPa
Clouds: Clear
Visibility: 10 miles , 16 km
2020/05/27 23:56 KAWO 272356Z AUTO 30011KT 10SM CLR 22/11 A3012 RMK AO2 SLP204 T02170106 10222 20172 58011
KPWT - Bremerton Ntnl, Washington, USA
Distance from station: WSW 38mi, 61km
Updated: 05/27/2020 4:56pm
Clear
Clear
 Wind from NE
Wind: NE 12 mph , 19 km/h
Temperature: 73°F , 23°C
Dew Point: 36°F , 2°C
Humidity: 25%
Barometer: 30.12 inHg , 1020 hPa
Clouds: Clear
Visibility: 10 miles , 16 km
2020/05/27 23:56 KPWT 272356Z AUTO 04010KT 10SM CLR 23/02 A3012 RMK AO2 SLP200 T02330017 10233 20178 58016
KTIW - Tacoma, Washington, USA
Distance from station: SW 43mi, 69km
Updated: 05/27/2020 4:53pm
Clear
Clear
 Wind from N
Wind: N 12 mph , 19 km/h
Temperature: 72°F , 22°C
Dew Point: 37°F , 3°C
Humidity: 29%
Barometer: 30.10 inHg , 1019.3 hPa
Clouds: Clear
Visibility: 10 miles , 16 km
2020/05/27 23:53 KTIW 272353Z 01010KT 10SM CLR 22/03 A3010 RMK AO2 SLP193 T02170028 10222 20161 58016
 
KPLU - Puyallup/Thun, Washington, USA
Distance from station: SSW 47mi, 76km
Updated: 05/27/2020 5:15pm
Clear
Clear
 Wind from varies
Wind: varies 5 mph , 7 km/h
Temperature: 75°F , 24°C
Dew Point: 45°F , 7°C
Humidity: 34%
Barometer: 30.10 inHg , 1019.3 hPa
Clouds: Clear
Visibility: 10 miles , 16 km
2020/05/28 00:15 KPLU 280015Z AUTO VRB04KT 10SM CLR 24/07 A3010 RMK AO2
KSMP - Stampede Pass, Washington, USA
Distance from station: SE 47mi, 76km
Updated: 05/27/2020 4:56pm
Clear
Clear
 Wind from varies
Wind: varies 3 mph , 6 km/h
Temperature: 72°F , 22°C
Dew Point: 28°F , -2°C
Humidity: 20%
Barometer: 30.18 inHg , 1022 hPa
Clouds: Clear
Visibility: 10 miles , 16 km
2020/05/27 23:56 KSMP 272356Z AUTO VRB03KT 10SM CLR 22/M02 A3018 RMK AO2 SLP206 T02171017 10222 20172 58005 $
KNUW - Whidbey Is. Nas, Washington, USA
Distance from station: NW 49mi, 79km
Updated: 05/27/2020 4:56pm
Mostly cloudy
Mostly cloudy
 Wind from W
Wind: W 7 mph , 11 km/h
Temperature: 63°F , 17°C
Dew Point: 46°F , 8°C
Humidity: 56%
Barometer: 30.18 inHg , 1022 hPa
Clouds: Mostly cloudy
Visibility: 10 miles , 16 km
Cloud details: Partly cloudy 16000 ft
Partly cloudy 22000 ft
Mostly cloudy 25000 ft
2020/05/27 23:56 KNUW 272356Z 26006KT 10SM SCT160 SCT220 BKN250 17/08 A3018 RMK AO2 SLP218 T01720083 10178 20139 58012
 
KBVS - Burlington/Mt V, Washington, USA
Distance from station: NNW 51mi, 83km
Updated: 05/27/2020 5:15pm
Clear
Clear
 Wind from WNW
Wind: WNW 12 mph , 19 km/h
Temperature: 72°F , 22°C
Dew Point: 50°F , 10°C
Humidity: 47%
Barometer: 30.13 inHg , 1020.3 hPa
Clouds: Clear
Visibility: 10 miles , 16 km
2020/05/28 00:15 KBVS 280015Z AUTO 29010KT 10SM CLR 22/10 A3013 RMK A01
KSHN - Shelton, Washington, USA
Distance from station: SW 63mi, 101km
Updated: 05/27/2020 4:53pm
Clear
Clear
 Wind from N
Wind: N 8 mph , 13 km/h
Temperature: 77°F , 25°C
Dew Point: 45°F , 7°C
Humidity: 32%
Barometer: 30.07 inHg , 1018.3 hPa
Clouds: Clear
Visibility: 10 miles , 16 km
2020/05/27 23:53 KSHN 272353Z AUTO 35007KT 310V010 10SM CLR 25/07 A3007 RMK AO2 SLP183 T02500067 10256 20189 58014
KOLM - Olympia, Washington, USA
Distance from station: SW 68mi, 110km
Updated: 05/27/2020 4:54pm
Clear
Clear
 Wind from N
Wind: N 10 mph , 17 km/h
Temperature: 75°F , 24°C
Dew Point: 36°F , 2°C
Humidity: 24%
Barometer: 30.10 inHg , 1019.3 hPa
Clouds: Clear
Visibility: 10 miles , 16 km
2020/05/27 23:54 KOLM 272354Z 01009KT 10SM CLR 24/02 A3010 RMK AO2 SLP191 T02440022 10244 20183 58015
 
KCLM - Port Angeles, Washington, USA
Distance from station: WNW 72mi, 115km
Updated: 05/27/2020 4:53pm
Clear
Clear
 Wind from E
Wind: E 6 mph , 9 km/h
Temperature: 70°F , 21°C
Dew Point: 34°F , 1°C
Humidity: 27%
Barometer: 30.15 inHg , 1021 hPa
Clouds: Clear
Visibility: 10 miles , 16 km
2020/05/27 23:53 KCLM 272353Z AUTO 09005KT 10SM CLR 21/01 A3015 RMK AO2 SLP210 T02060006 10211 20156 58015
CWYJ - Victoria Univ, British Columbia, Canada
Distance from station: NW 75mi, 121km
Updated: 05/27/2020 5:00pm

 Wind from N
Wind: N 5 mph , 7 km/h
Temperature: 68°F , 20°C
Dew Point: 41°F , 5°C
Humidity: 38%
2020/05/28 00:00 CWYJ 280000Z AUTO 01004KT 20/05 RMK AO1 SLP207 T02040051 57016
KBLI - Bellingham, Washington, USA
Distance from station: NNW 75mi, 121km
Updated: 05/27/2020 4:53pm
Clear
Clear
 Wind from NW
Wind: NW 8 mph , 13 km/h
Temperature: 70°F , 21°C
Dew Point: 48°F , 9°C
Humidity: 46%
Barometer: 30.14 inHg , 1020.7 hPa
Clouds: Clear
Visibility: 10 miles , 16 km
2020/05/27 23:53 KBLI 272353Z 32007KT 10SM CLR 21/09 A3014 RMK AO2 SLP211 T02110089 10222 20178 58008